Time;durP1;ratioP1;P1;durP2;ratioP2;P2;SDS_P1;SDS_P2;PMS_P1;PMS_P2;Temp;Humidity;BMP_temperature;BMP_pressure;BME280_temperature;BME280_humidity;BME280_pressure;Samples;Min_cycle;Max_cycle;Signal;HPM_P1;HPM_P2
2021/06/19 07:32:57;;;;;;;8.83;6.03;;;26.60;94.10;;;;;;5109133;27;20536;-87
2021/06/19 07:35:25;;;;;;;7.00;5.80;;;26.60;94.70;;;;;;5117556;27;20466;-87
2021/06/19 07:37:53;;;;;;;6.10;5.30;;;26.60;92.90;;;;;;5097260;27;20463;-87
2021/06/19 07:40:22;;;;;;;5.93;4.87;;;26.70;93.10;;;;;;5109121;27;20463;-88
2021/06/19 07:42:50;;;;;;;7.03;5.60;;;26.70;92.30;;;;;;5118946;27;20467;-88
2021/06/19 07:45:18;;;;;;;8.20;4.90;;;26.80;92.10;;;;;;5121886;27;20474;-88
2021/06/19 07:47:47;;;;;;;5.30;4.83;;;26.90;91.80;;;;;;5139019;27;20501;-88
2021/06/19 07:50:16;;;;;;;8.90;5.27;;;27.00;91.10;;;;;;5126217;27;20482;-89
2021/06/19 07:52:45;;;;;;;6.17;5.40;;;27.00;91.20;;;;;;5138068;27;20466;-85
2021/06/19 07:55:15;;;;;;;7.00;5.43;;;27.20;91.40;;;;;;5134688;27;20625;-87
2021/06/19 07:57:43;;;;;;;6.10;5.50;;;27.20;90.90;;;;;;5132759;27;20466;-87
2021/06/19 08:00:11;;;;;;;8.00;5.10;;;27.20;90.20;;;;;;5130998;27;20466;-87
2021/06/19 08:02:43;;;;;;;7.27;5.10;;;27.30;91.10;;;;;;5151881;27;20496;-88
2021/06/19 08:05:13;;;;;;;6.00;4.97;;;27.40;91.10;;;;;;5136590;27;20455;-89
2021/06/19 08:07:42;;;;;;;5.00;4.60;;;27.50;90.60;;;;;;5127645;27;21214;-89
2021/06/19 08:10:11;;;;;;;5.30;4.80;;;27.60;91.20;;;;;;5129986;27;20470;-88
2021/06/19 08:12:40;;;;;;;6.03;5.40;;;27.70;90.20;;;;;;5151135;27;20480;-89
2021/06/19 08:15:09;;;;;;;4.97;4.57;;;27.90;89.90;;;;;;5106150;27;20471;-86
2021/06/19 08:17:37;;;;;;;10.97;4.80;;;28.00;90.20;;;;;;5141935;27;20475;-88
2021/06/19 08:20:06;;;;;;;5.67;4.70;;;28.00;86.80;;;;;;5142193;27;20467;-87
2021/06/19 08:22:34;;;;;;;6.47;5.23;;;28.00;88.60;;;;;;5140855;27;20464;-87
2021/06/19 08:25:05;;;;;;;5.83;4.90;;;28.20;89.00;;;;;;5137153;27;20482;-88
2021/06/19 08:27:33;;;;;;;5.13;4.57;;;28.30;88.80;;;;;;5123900;27;20996;-87
2021/06/19 08:30:01;;;;;;;4.70;4.30;;;28.40;86.80;;;;;;5130995;27;20819;-88
2021/06/19 08:32:29;;;;;;;4.13;3.80;;;28.50;88.20;;;;;;5122588;27;20466;-88
2021/06/19 08:34:57;;;;;;;4.77;4.37;;;28.60;88.10;;;;;;5134189;27;20490;-88
2021/06/19 08:37:25;;;;;;;5.93;5.40;;;28.60;85.50;;;;;;5131994;27;20869;-88
2021/06/19 08:39:57;;;;;;;8.03;5.27;;;28.70;85.80;;;;;;5142116;27;20466;-88
2021/06/19 08:42:26;;;;;;;6.63;4.40;;;28.90;87.10;;;;;;5111074;27;21201;-88
2021/06/19 08:44:57;;;;;;;9.60;5.40;;;29.00;87.30;;;;;;5121834;27;20475;-88
2021/06/19 08:47:25;;;;;;;6.87;4.80;;;29.10;85.20;;;;;;5118026;27;20490;-88
2021/06/19 08:49:55;;;;;;;5.70;5.20;;;29.20;87.70;;;;;;5116717;27;20529;-87
2021/06/19 08:52:23;;;;;;;6.57;4.90;;;29.20;85.30;;;;;;5113967;27;20575;-86
2021/06/19 08:54:51;;;;;;;8.63;5.50;;;29.30;84.80;;;;;;5114313;27;20912;-87
2021/06/19 08:57:19;;;;;;;14.63;5.43;;;29.30;82.60;;;;;;5123761;27;20477;-86
2021/06/19 08:59:51;;;;;;;11.40;5.53;;;29.30;82.60;;;;;;5107808;27;20494;-88
2021/06/19 09:02:20;;;;;;;6.23;5.17;;;29.40;82.20;;;;;;5120605;27;21019;-88
2021/06/19 09:04:55;;;;;;;6.13;5.53;;;29.40;82.10;;;;;;5125934;27;20464;-87
2021/06/19 09:07:40;;;;;;;7.53;5.50;;;29.40;82.20;;;;;;5126610;27;20459;-87
2021/06/19 09:10:23;;;;;;;11.90;5.07;;;29.40;83.60;;;;;;5117537;27;20478;-88
2021/06/19 09:13:12;;;;;;;5.83;5.40;;;29.50;84.50;;;;;;5128977;27;20470;-90
2021/06/19 09:15:47;;;;;;;10.00;5.70;;;29.60;82.70;;;;;;5104898;27;20463;-87
2021/06/19 09:18:21;;;;;;;7.27;6.10;;;29.70;82.30;;;;;;5107000;27;20478;-88
2021/06/19 09:20:52;;;;;;;10.73;5.23;;;29.80;83.80;;;;;;5108032;27;20455;-88
2021/06/19 09:23:34;;;;;;;5.50;5.00;;;29.90;81.60;;;;;;5090885;27;20500;-89
2021/06/19 09:26:14;;;;;;;9.70;5.73;;;29.90;80.40;;;;;;5116070;27;20455;-89
2021/06/19 09:28:56;;;;;;;5.57;4.70;;;29.90;81.60;;;;;;5111193;27;20505;-89
2021/06/19 09:31:33;;;;;;;7.57;5.30;;;29.90;83.80;;;;;;5112256;27;20452;-89
2021/06/19 09:34:06;;;;;;;11.17;4.80;;;30.10;83.10;;;;;;5123091;27;20474;-88
2021/06/19 09:36:45;;;;;;;5.47;4.23;;;30.30;81.80;;;;;;5127228;27;20824;-87
2021/06/19 09:39:16;;;;;;;5.33;4.83;;;30.40;81.20;;;;;;5128542;27;20468;-88
2021/06/19 09:41:46;;;;;;;5.00;4.27;;;30.50;80.50;;;;;;5116723;27;20471;-88
2021/06/19 09:44:14;;;;;;;6.97;4.80;;;30.60;80.80;;;;;;5099614;27;20496;-87
2021/06/19 09:46:57;;;;;;;7.80;4.67;;;30.70;80.60;;;;;;5131596;27;20468;-88
2021/06/19 09:49:32;;;;;;;7.43;4.60;;;30.70;79.80;;;;;;5115311;27;20849;-88
2021/06/19 09:52:00;;;;;;;4.90;4.50;;;30.70;77.20;;;;;;5106035;27;20471;-88
2021/06/19 09:54:28;;;;;;;7.03;4.63;;;30.70;79.20;;;;;;5106681;27;20534;-89
2021/06/19 09:56:59;;;;;;;5.00;4.60;;;30.70;78.50;;;;;;5100936;27;20467;-88
2021/06/19 09:59:29;;;;;;;4.70;4.30;;;30.70;79.40;;;;;;5127129;27;20482;-89
2021/06/19 10:02:00;;;;;;;5.03;4.63;;;30.90;80.50;;;;;;5126256;27;20635;-89
2021/06/19 10:04:29;;;;;;;6.50;4.23;;;31.00;77.80;;;;;;5115356;27;20503;-88
2021/06/19 10:06:58;;;;;;;5.70;4.67;;;31.20;79.90;;;;;;5124398;27;20472;-89
2021/06/19 10:09:26;;;;;;;5.00;4.10;;;31.40;78.40;;;;;;5122839;27;20468;-89
2021/06/19 10:11:55;;;;;;;7.80;4.47;;;31.50;79.50;;;;;;5106386;27;20486;-88
2021/06/19 10:14:26;;;;;;;5.27;4.77;;;31.60;78.90;;;;;;5116243;27;20455;-90
2021/06/19 10:16:56;;;;;;;15.87;5.87;;;31.80;79.40;;;;;;5126091;27;20468;-88
2021/06/19 10:19:27;;;;;;;4.47;4.07;;;31.90;78.90;;;;;;5118925;27;20562;-88
2021/06/19 10:21:56;;;;;;;8.20;4.97;;;31.90;77.20;;;;;;5121275;27;20485;-87
2021/06/19 10:24:27;;;;;;;6.67;4.73;;;31.90;76.50;;;;;;5123394;27;21063;-88
2021/06/19 10:26:56;;;;;;;7.03;5.17;;;31.90;78.40;;;;;;5113825;27;20469;-88
2021/06/19 10:29:29;;;;;;;4.20;3.80;;;31.90;78.10;;;;;;5103981;27;20487;-87
2021/06/19 10:31:57;;;;;;;8.23;4.67;;;32.00;74.90;;;;;;5117244;27;20479;-89
2021/06/19 10:34:29;;;;;;;7.97;4.73;;;31.90;73.50;;;;;;5112882;27;21056;-90
2021/06/19 10:36:58;;;;;;;6.97;5.47;;;31.80;74.60;;;;;;5102198;27;20479;-88
2021/06/19 10:39:40;;;;;;;11.20;5.20;;;31.80;74.90;;;;;;5104113;27;20475;-88
2021/06/19 10:42:29;;;;;;;5.73;4.83;;;31.90;74.10;;;;;;5103979;27;20476;-87
2021/06/19 10:44:59;;;;;;;7.23;4.63;;;32.10;75.70;;;;;;5105581;27;20459;-88
2021/06/19 10:47:30;;;;;;;5.20;4.27;;;32.30;77.00;;;;;;5116430;27;20492;-89
2021/06/19 10:50:01;;;;;;;5.27;4.70;;;32.50;75.80;;;;;;5123892;27;20848;-88
2021/06/19 10:52:38;;;;;;;5.27;4.87;;;32.60;72.90;;;;;;5104773;27;20518;-89
2021/06/19 10:55:28;;;;;;;5.40;4.90;;;32.80;74.90;;;;;;5106118;27;20471;-88
2021/06/19 10:58:12;;;;;;;7.60;4.77;;;33.00;75.20;;;;;;5102334;27;20492;-90
2021/06/19 11:00:46;;;;;;;8.07;5.30;;;33.00;74.30;;;;;;5106612;27;20852;-90
2021/06/19 11:03:16;;;;;;;8.27;5.43;;;33.10;72.90;;;;;;5120049;27;20576;-90
2021/06/19 11:05:56;;;;;;;7.47;5.07;;;33.20;71.50;;;;;;5087991;27;20475;-91
2021/06/19 11:08:25;;;;;;;5.27;4.77;;;33.30;73.50;;;;;;5093387;27;20474;-91
2021/06/19 11:10:57;;;;;;;5.30;4.90;;;33.40;72.60;;;;;;5111492;27;20973;-91
2021/06/19 11:13:42;;;;;;;7.63;5.47;;;33.50;69.30;;;;;;5100310;27;20923;-90
2021/06/19 11:16:44;;;;;;;6.63;4.60;;;33.40;69.60;;;;;;5113604;27;20464;-90
2021/06/19 11:19:31;;;;;;;5.13;4.63;;;33.40;71.20;;;;;;5104445;27;20965;-90
2021/06/19 11:22:26;;;;;;;10.63;4.67;;;33.70;73.70;;;;;;5118983;27;20465;-96
2021/06/19 11:25:23;;;;;;;5.90;5.30;;;33.90;70.50;;;;;;5110611;27;20552;-91
2021/06/19 11:27:55;;;;;;;8.47;5.63;;;34.00;70.10;;;;;;5107172;27;20463;-93
2021/06/19 11:30:43;;;;;;;6.40;4.70;;;34.10;69.60;;;;;;5096873;27;21062;-91
2021/06/19 11:33:54;;;;;;;9.20;4.70;;;33.90;68.90;;;;;;5122955;27;20455;-92
2021/06/19 11:36:33;;;;;;;4.83;4.33;;;33.70;67.20;;;;;;5122274;27;20986;-92
2021/06/19 11:39:08;;;;;;;5.53;4.90;;;33.80;70.60;;;;;;5111723;27;20475;-92
2021/06/19 11:41:42;;;;;;;5.33;4.40;;;34.00;69.40;;;;;;5128316;27;20541;-90
2021/06/19 11:44:19;;;;;;;7.73;4.93;;;34.20;67.80;;;;;;5118266;27;20485;-92
2021/06/19 11:46:55;;;;;;;5.33;4.43;;;34.10;67.20;;;;;;5129389;27;20463;-91
2021/06/19 11:49:38;;;;;;;5.70;4.80;;;34.20;67.90;;;;;;5112331;27;20566;-91
2021/06/19 11:52:09;;;;;;;7.23;5.27;;;34.10;67.40;;;;;;5127987;27;20538;-92
2021/06/19 11:54:43;;;;;;;5.93;5.30;;;34.40;67.10;;;;;;5126041;27;20476;-91
2021/06/19 11:57:22;;;;;;;5.40;4.90;;;34.70;65.80;;;;;;5120945;27;20481;-92
2021/06/19 12:00:09;;;;;;;5.70;4.70;;;34.80;66.30;;;;;;5114417;27;20478;-91
2021/06/19 12:02:39;;;;;;;6.67;4.57;;;34.90;65.70;;;;;;5129883;27;20867;-91
2021/06/19 12:05:18;;;;;;;5.33;4.00;;;35.00;64.90;;;;;;5124140;27;20539;-91
2021/06/19 12:07:47;;;;;;;5.37;4.60;;;35.00;66.90;;;;;;5108925;27;20467;-91
2021/06/19 12:10:28;;;;;;;7.90;4.53;;;35.10;65.10;;;;;;5097744;28;20501;-91
2021/06/19 12:13:00;;;;;;;6.43;4.90;;;35.30;65.30;;;;;;5108064;27;20834;-91
2021/06/19 12:15:28;;;;;;;6.67;4.90;;;35.70;63.80;;;;;;5103705;27;20555;-91
2021/06/19 12:17:58;;;;;;;7.60;5.27;;;;;;;;;;5123741;27;20495;-92
2021/06/19 12:20:27;;;;;;;6.30;4.20;;;38.30;59.80;;;;;;5125138;27;20571;-90
2021/06/19 12:22:55;;;;;;;6.77;3.47;;;39.30;59.10;;;;;;5105339;27;20508;-90
2021/06/19 12:25:32;;;;;;;6.50;3.90;;;40.30;54.80;;;;;;5107773;27;20588;-90
2021/06/19 12:28:02;;;;;;;9.03;4.20;;;40.70;55.00;;;;;;5107193;27;20466;-89
2021/06/19 12:30:31;;;;;;;6.33;3.50;;;40.40;56.20;;;;;;5106350;27;20466;-90
2021/06/19 12:32:59;;;;;;;4.37;3.73;;;40.70;54.90;;;;;;5130377;27;20859;-89
2021/06/19 12:35:27;;;;;;;5.60;3.63;;;41.10;50.50;;;;;;5127322;27;20466;-90
2021/06/19 12:37:57;;;;;;;5.97;3.10;;;41.30;52.10;;;;;;5126660;27;20467;-91
2021/06/19 12:40:31;;;;;;;5.07;4.10;;;41.50;50.50;;;;;;5122280;27;20478;-90
2021/06/19 12:43:05;;;;;;;5.97;3.90;;;42.10;52.40;;;;;;5128049;27;20472;-90
2021/06/19 12:45:35;;;;;;;4.83;3.80;;;42.80;49.30;;;;;;5117469;27;20485;-89
2021/06/19 12:48:08;;;;;;;11.00;3.63;;;43.10;49.60;;;;;;5102376;27;20469;-90
2021/06/19 12:50:39;;;;;;;6.10;3.33;;;43.30;49.50;;;;;;5115550;27;20940;-90
2021/06/19 12:53:10;;;;;;;7.47;3.53;;;43.50;47.90;;;;;;5103333;28;20954;-91
2021/06/19 12:55:39;;;;;;;3.43;3.23;;;43.90;49.90;;;;;;5103943;27;20471;-89
2021/06/19 12:58:12;;;;;;;3.50;3.10;;;44.10;48.40;;;;;;5125075;27;20500;-89
2021/06/19 13:00:53;;;;;;;5.00;3.50;;;44.20;46.10;;;;;;5120007;27;20467;-90
2021/06/19 13:03:24;;;;;;;4.47;3.30;;;43.70;47.00;;;;;;5127014;27;21321;-90
2021/06/19 13:05:57;;;;;;;13.37;3.87;;;43.90;46.50;;;;;;5122999;27;21113;-89
2021/06/19 13:08:27;;;;;;;7.80;4.23;;;42.90;47.00;;;;;;5125752;27;20484;-89
2021/06/19 13:11:00;;;;;;;7.17;4.00;;;40.80;51.60;;;;;;5130675;27;20459;-89
2021/06/19 13:13:40;;;;;;;4.50;3.80;;;40.00;50.90;;;;;;5124419;27;20543;-91
2021/06/19 13:16:08;;;;;;;4.00;3.70;;;38.50;55.50;;;;;;5121000;27;20451;-90
2021/06/19 13:18:37;;;;;;;7.80;3.93;;;38.00;57.70;;;;;;5126194;27;20479;-89
2021/06/19 13:21:12;;;;;;;6.00;4.40;;;37.80;57.20;;;;;;5111938;27;20463;-90
2021/06/19 13:23:41;;;;;;;5.47;4.43;;;37.50;57.70;;;;;;5101906;28;20542;-90
2021/06/19 13:26:22;;;;;;;6.70;4.50;;;37.20;59.70;;;;;;5107191;28;20469;-91
2021/06/19 13:28:59;;;;;;;4.27;3.60;;;37.00;59.00;;;;;;5115661;27;20453;-91
2021/06/19 13:31:30;;;;;;;4.83;4.10;;;36.70;58.30;;;;;;5131092;27;21159;-90
2021/06/19 13:34:00;;;;;;;4.10;3.80;;;36.50;58.80;;;;;;5120841;27;20974;-90
2021/06/19 13:36:31;;;;;;;5.27;3.83;;;36.30;58.70;;;;;;5118932;27;20487;-90
2021/06/19 13:39:02;;;;;;;5.07;4.10;;;36.10;59.50;;;;;;5132005;27;20883;-90
2021/06/19 13:41:33;;;;;;;6.30;3.90;;;35.80;58.70;;;;;;5112336;27;20468;-90
2021/06/19 13:44:03;;;;;;;4.67;4.03;;;35.80;59.30;;;;;;5108345;27;21348;-91
2021/06/19 13:46:32;;;;;;;4.83;3.87;;;36.10;60.30;;;;;;5106887;27;20473;-90
2021/06/19 13:49:01;;;;;;;9.60;3.83;;;37.10;58.80;;;;;;5116687;27;21001;-90
2021/06/19 13:51:30;;;;;;;6.13;4.20;;;37.30;56.40;;;;;;5113897;27;20472;-90
2021/06/19 13:53:59;;;;;;;4.10;3.70;;;37.00;56.40;;;;;;5115639;27;20889;-89
2021/06/19 13:56:27;;;;;;;6.70;4.57;;;36.70;58.90;;;;;;5107512;27;20484;-91
2021/06/19 13:58:55;;;;;;;8.07;4.03;;;36.40;57.50;;;;;;5105679;27;20482;-92
2021/06/19 14:01:26;;;;;;;5.40;4.10;;;36.20;59.00;;;;;;5108532;27;20464;-91
2021/06/19 14:03:55;;;;;;;6.53;3.60;;;36.20;59.90;;;;;;5117985;27;20495;-90
2021/06/19 14:06:24;;;;;;;4.33;3.93;;;36.10;60.30;;;;;;5117523;27;20482;-89
2021/06/19 14:08:53;;;;;;;5.47;3.80;;;35.90;58.80;;;;;;5101867;27;20937;-89
2021/06/19 14:11:24;;;;;;;7.00;4.40;;;35.80;56.90;;;;;;5119453;27;20465;-93
2021/06/19 14:13:52;;;;;;;5.03;4.40;;;35.70;57.70;;;;;;5123082;27;20467;-91
2021/06/19 14:16:21;;;;;;;10.83;3.93;;;35.60;56.50;;;;;;5123918;27;20498;-91
2021/06/19 14:18:51;;;;;;;6.67;3.70;;;35.50;57.40;;;;;;5133015;27;20476;-92
2021/06/19 14:21:20;;;;;;;4.93;3.90;;;35.60;58.00;;;;;;5125657;27;20465;-94
2021/06/19 14:23:48;;;;;;;4.10;3.73;;;35.70;60.00;;;;;;5125067;27;20857;-93
2021/06/19 14:26:20;;;;;;;5.50;4.20;;;35.60;59.50;;;;;;5133287;27;20578;-90
2021/06/19 14:28:50;;;;;;;4.90;4.30;;;35.70;59.00;;;;;;5111342;27;20491;-90
2021/06/19 14:31:22;;;;;;;10.27;4.00;;;35.70;58.30;;;;;;5112267;27;20464;-89
2021/06/19 14:33:52;;;;;;;9.73;3.57;;;35.90;61.40;;;;;;5107810;27;20464;-89
2021/06/19 14:36:21;;;;;;;5.00;4.43;;;35.90;59.10;;;;;;5117932;27;20455;-89
2021/06/19 14:38:50;;;;;;;4.40;3.60;;;36.00;57.90;;;;;;5115362;27;20479;-91
2021/06/19 14:41:19;;;;;;;4.43;3.73;;;36.30;60.50;;;;;;5113482;27;20844;-90
2021/06/19 14:43:47;;;;;;;5.00;4.50;;;36.40;59.60;;;;;;5112921;27;20480;-90
2021/06/19 14:46:15;;;;;;;4.43;3.80;;;36.60;59.30;;;;;;5105115;27;20471;-91
2021/06/19 14:48:43;;;;;;;6.70;3.20;;;36.40;59.60;;;;;;5123905;27;20468;-89
2021/06/19 14:51:13;;;;;;;5.43;4.13;;;36.30;59.40;;;;;;5119447;27;20467;-89
2021/06/19 14:53:41;;;;;;;9.60;3.80;;;36.30;60.00;;;;;;5125752;27;20444;-88
2021/06/19 14:56:09;;;;;;;6.40;4.00;;;36.30;59.70;;;;;;5102032;27;20483;-89
2021/06/19 14:58:37;;;;;;;8.93;4.27;;;36.10;58.90;;;;;;5109484;27;20468;-85
2021/06/19 15:01:05;;;;;;;3.80;3.60;;;35.60;60.00;;;;;;5109710;27;20471;-87
2021/06/19 15:03:33;;;;;;;6.10;3.80;;;35.40;59.90;;;;;;5121762;27;20490;-86
2021/06/19 15:06:03;;;;;;;4.37;3.83;;;35.40;63.00;;;;;;5107933;27;20471;-87
2021/06/19 15:08:35;;;;;;;4.20;3.80;;;35.40;62.70;;;;;;5119516;27;21086;-87
2021/06/19 15:11:03;;;;;;;6.00;4.30;;;35.30;62.10;;;;;;5122319;27;20481;-87
2021/06/19 15:13:31;;;;;;;7.80;4.20;;;35.20;61.60;;;;;;5119720;27;21318;-87
2021/06/19 15:15:59;;;;;;;6.00;4.20;;;35.20;62.10;;;;;;5114719;27;20501;-88
2021/06/19 15:18:27;;;;;;;4.40;3.83;;;35.10;62.60;;;;;;5127362;27;20471;-87
2021/06/19 15:20:55;;;;;;;9.10;4.00;;;35.00;61.30;;;;;;5118047;27;20574;-86
2021/06/19 15:23:23;;;;;;;8.53;4.10;;;35.10;61.60;;;;;;5119639;27;20480;-88
2021/06/19 15:25:53;;;;;;;5.03;4.10;;;36.00;62.30;;;;;;5120196;27;20480;-89
2021/06/19 15:28:21;;;;;;;4.77;4.17;;;37.20;58.10;;;;;;5108595;27;20469;-89
2021/06/19 15:30:49;;;;;;;6.83;4.13;;;37.80;57.40;;;;;;5107769;27;20496;-90
2021/06/19 15:33:17;;;;;;;10.17;4.17;;;37.70;57.10;;;;;;5117641;27;20567;-89
2021/06/19 15:35:47;;;;;;;6.77;4.30;;;37.10;57.90;;;;;;5119688;27;20478;-89
2021/06/19 15:38:15;;;;;;;6.03;4.37;;;36.70;59.10;;;;;;5102016;27;20484;-87
2021/06/19 15:40:43;;;;;;;5.03;4.30;;;36.20;60.20;;;;;;5116474;27;20998;-87
2021/06/19 15:43:13;;;;;;;11.47;4.37;;;35.80;59.80;;;;;;5119439;27;20617;-87
2021/06/19 15:45:41;;;;;;;9.20;4.80;;;35.40;60.70;;;;;;5121068;27;20484;-89
2021/06/19 15:48:09;;;;;;;5.87;4.30;;;35.10;61.40;;;;;;5118869;27;20473;-87
2021/06/19 15:50:37;;;;;;;6.90;4.23;;;34.90;63.40;;;;;;5114119;27;20452;-88
2021/06/19 15:53:05;;;;;;;6.63;5.00;;;34.90;62.70;;;;;;5133268;27;20468;-89
2021/06/19 15:55:33;;;;;;;5.67;4.30;;;34.90;65.40;;;;;;5114673;27;20567;-90
2021/06/19 15:58:01;;;;;;;5.53;4.43;;;34.90;64.70;;;;;;5104545;27;20989;-89
2021/06/19 16:00:31;;;;;;;6.60;4.60;;;34.90;64.30;;;;;;5094434;27;20559;-88
2021/06/19 16:03:02;;;;;;;7.13;4.83;;;34.90;63.40;;;;;;5116029;27;20456;-90
2021/06/19 16:05:30;;;;;;;4.53;4.23;;;34.80;63.60;;;;;;5119902;27;20491;-88
2021/06/19 16:07:58;;;;;;;12.27;4.77;;;34.80;65.10;;;;;;5115673;27;20459;-90
2021/06/19 16:10:26;;;;;;;11.23;4.33;;;34.80;63.30;;;;;;5103207;27;20459;-86
2021/06/19 16:12:54;;;;;;;4.40;4.03;;;34.90;63.70;;;;;;5109374;27;20471;-89
2021/06/19 16:15:22;;;;;;;10.03;4.70;;;35.00;64.60;;;;;;5118103;27;20473;-89
2021/06/19 16:17:52;;;;;;;4.87;4.13;;;35.20;63.30;;;;;;5124435;27;20464;-89
2021/06/19 16:20:20;;;;;;;5.13;4.10;;;35.40;61.40;;;;;;5115948;27;20475;-86
2021/06/19 16:22:48;;;;;;;6.30;4.70;;;35.40;60.90;;;;;;5123643;27;20471;-86
2021/06/19 16:25:16;;;;;;;4.67;4.27;;;35.20;60.80;;;;;;5116437;27;20861;-90
2021/06/19 16:27:44;;;;;;;9.63;4.20;;;35.20;61.50;;;;;;5116970;27;20463;-89
2021/06/19 16:30:14;;;;;;;5.13;3.90;;;35.20;64.90;;;;;;5117203;27;20478;-89
2021/06/19 16:32:47;;;;;;;6.10;4.80;;;35.10;67.60;;;;;;5116927;27;20482;-89
2021/06/19 16:35:17;;;;;;;4.40;4.00;;;35.10;68.60;;;;;;5116787;27;20479;-89
2021/06/19 16:37:45;;;;;;;6.50;4.77;;;35.20;67.50;;;;;;5125829;27;20542;-90
2021/06/19 16:40:15;;;;;;;8.20;4.30;;;35.20;66.90;;;;;;5107438;27;20483;-90
2021/06/19 16:42:43;;;;;;;6.50;4.53;;;35.20;66.50;;;;;;5113219;27;20510;-88
2021/06/19 16:45:13;;;;;;;4.20;3.80;;;35.20;67.30;;;;;;5131175;27;20467;-88
2021/06/19 16:47:41;;;;;;;4.87;4.47;;;35.20;66.30;;;;;;5125883;27;21371;-87
2021/06/19 16:50:10;;;;;;;8.10;5.00;;;35.20;67.80;;;;;;5101675;27;20482;-88
2021/06/19 16:52:40;;;;;;;11.20;4.37;;;35.20;68.00;;;;;;5124451;27;20459;-87
2021/06/19 16:55:09;;;;;;;6.20;4.90;;;35.20;67.50;;;;;;5113268;27;21218;-90
2021/06/19 16:57:37;;;;;;;4.60;4.20;;;35.20;68.00;;;;;;5107659;27;20463;-90
2021/06/19 17:00:07;;;;;;;4.90;4.37;;;35.20;67.70;;;;;;5099626;27;20472;-89
2021/06/19 17:02:35;;;;;;;7.40;4.40;;;35.10;67.60;;;;;;5129256;27;20490;-90
2021/06/19 17:05:04;;;;;;;5.53;4.60;;;35.00;67.80;;;;;;5122425;27;20455;-89
2021/06/19 17:07:32;;;;;;;7.83;4.90;;;34.90;68.00;;;;;;5123287;27;20470;-89
2021/06/19 17:10:01;;;;;;;6.20;4.60;;;34.70;69.70;;;;;;5116821;27;20473;-89
2021/06/19 17:12:29;;;;;;;8.70;5.30;;;34.70;71.00;;;;;;5118940;27;20470;-89
2021/06/19 17:14:57;;;;;;;8.80;5.10;;;34.60;71.10;;;;;;5116500;27;20479;-89
2021/06/19 17:17:26;;;;;;;6.50;4.60;;;34.50;72.20;;;;;;5119371;27;20867;-89
2021/06/19 17:19:54;;;;;;;5.20;4.80;;;34.50;71.10;;;;;;5110948;27;20576;-89
2021/06/19 17:22:23;;;;;;;9.90;5.90;;;34.50;71.20;;;;;;5130804;27;20831;-91
2021/06/19 17:24:51;;;;;;;5.90;4.40;;;34.50;70.80;;;;;;5112891;27;20477;-89
2021/06/19 17:27:21;;;;;;;13.60;4.87;;;34.50;70.00;;;;;;5093127;27;20470;-89
2021/06/19 18:39:56;;;;;;;7.87;6.20;;;29.80;83.60;;;;;;5043639;28;20462;-90
2021/06/19 18:42:25;;;;;;;11.63;6.80;;;29.80;84.10;;;;;;5057039;28;20661;-90
2021/06/19 18:44:53;;;;;;;6.47;5.90;;;29.70;84.60;;;;;;5051545;28;20533;-88
2021/06/19 18:47:21;;;;;;;7.67;6.20;;;29.70;84.80;;;;;;5057167;28;22589;-90
2021/06/19 18:49:53;;;;;;;126.77;14.80;;;29.70;85.30;;;;;;5060470;28;20482;-90
2021/06/19 18:52:21;;;;;;;22.40;8.30;;;29.60;86.10;;;;;;5064214;28;20478;-90
2021/06/19 18:54:49;;;;;;;23.90;8.37;;;29.40;86.60;;;;;;5051904;28;20477;-90
2021/06/19 18:57:20;;;;;;;10.17;7.40;;;29.30;87.00;;;;;;5046735;28;20482;-89
2021/06/19 18:59:48;;;;;;;10.00;7.20;;;29.30;87.50;;;;;;5035552;28;20472;-88
2021/06/19 19:02:20;;;;;;;8.57;6.93;;;29.20;87.60;;;;;;5074541;28;20479;-88
2021/06/19 19:04:50;;;;;;;8.13;7.10;;;29.10;87.70;;;;;;5066589;28;20466;-89
2021/06/19 19:07:19;;;;;;;10.90;7.53;;;29.00;88.00;;;;;;5050642;28;20475;-90
2021/06/19 19:09:47;;;;;;;11.43;7.23;;;28.90;88.30;;;;;;5055762;28;20561;-89
2021/06/19 19:12:16;;;;;;;9.00;7.13;;;28.70;88.70;;;;;;5050719;28;20489;-90
2021/06/19 19:14:45;;;;;;;10.90;6.50;;;28.70;89.00;;;;;;5054586;28;20553;-89
2021/06/19 19:17:14;;;;;;;12.10;7.10;;;28.60;89.20;;;;;;5059831;28;20467;-87
2021/06/19 19:19:44;;;;;;;368.50;31.00;;;28.50;89.30;;;;;;5053115;28;20591;-87
2021/06/19 19:22:13;;;;;;;76.63;12.70;;;28.40;90.00;;;;;;5044645;28;21066;-89
2021/06/19 19:24:42;;;;;;;20.97;7.20;;;28.30;90.50;;;;;;5044127;28;20466;-90
2021/06/19 19:27:12;;;;;;;13.13;7.83;;;28.30;90.60;;;;;;5044266;28;20460;-89
2021/06/19 19:29:40;;;;;;;10.60;6.30;;;28.20;90.90;;;;;;5045947;28;20475;-88
2021/06/19 19:32:11;;;;;;;15.23;7.07;;;28.20;90.70;;;;;;5062261;28;20462;-90
2021/06/19 19:34:43;;;;;;;14.30;7.80;;;28.10;90.70;;;;;;5066081;28;20467;-90
2021/06/19 19:37:13;;;;;;;10.50;6.77;;;28.00;90.70;;;;;;5060922;28;20514;-89
2021/06/19 19:39:42;;;;;;;7.67;6.83;;;28.00;90.60;;;;;;5056243;28;20467;-88
2021/06/19 19:42:11;;;;;;;47.67;9.57;;;27.90;90.40;;;;;;5050736;28;20475;-90
2021/06/19 19:44:40;;;;;;;56.37;11.00;;;28.00;91.10;;;;;;5057023;28;20463;-87
2021/06/19 19:47:10;;;;;;;38.57;9.80;;;28.00;90.90;;;;;;5055665;28;20477;-85
2021/06/19 19:49:39;;;;;;;18.50;8.20;;;27.90;91.20;;;;;;5054034;28;20940;-87
2021/06/19 19:52:08;;;;;;;17.03;7.60;;;27.80;91.30;;;;;;5077456;28;20809;-89
2021/06/19 19:54:45;;;;;;;11.03;7.60;;;27.70;91.50;;;;;;5072000;28;20989;-86
2021/06/19 19:57:15;;;;;;;13.93;8.10;;;27.70;92.10;;;;;;5051893;28;20854;-88
2021/06/19 19:59:44;;;;;;;10.57;8.00;;;27.60;93.20;;;;;;5028710;28;20517;-88
2021/06/19 20:02:13;;;;;;;15.27;8.83;;;27.60;92.80;;;;;;5053853;28;20502;-88
2021/06/19 20:04:41;;;;;;;11.80;7.80;;;27.50;92.70;;;;;;5065248;28;20462;-85
2021/06/19 20:07:09;;;;;;;9.10;7.57;;;27.50;92.90;;;;;;5065949;28;20481;-85
2021/06/19 20:09:38;;;;;;;12.23;8.60;;;27.50;92.50;;;;;;5049565;28;20843;-87
2021/06/19 20:12:07;;;;;;;7.90;7.10;;;27.50;92.20;;;;;;5044654;28;20467;-87
2021/06/19 20:14:36;;;;;;;9.23;7.00;;;27.50;91.90;;;;;;5054699;28;20466;-87
2021/06/19 20:17:07;;;;;;;13.80;7.83;;;27.50;92.00;;;;;;5059541;28;20468;-86
2021/06/19 20:19:37;;;;;;;17.00;8.50;;;27.50;92.40;;;;;;5044669;28;20506;-87
2021/06/19 20:22:11;;;;;;;13.47;8.67;;;27.50;92.60;;;;;;5055921;28;20994;-87
2021/06/19 20:24:39;;;;;;;13.13;8.43;;;27.40;92.60;;;;;;5045704;28;20492;-86
2021/06/19 20:27:08;;;;;;;10.57;7.23;;;27.40;92.70;;;;;;5047499;28;21167;-85
2021/06/19 20:29:36;;;;;;;8.57;7.77;;;27.30;93.10;;;;;;5048009;28;20481;-86
2021/06/19 20:32:07;;;;;;;8.47;6.53;;;27.30;93.20;;;;;;5048608;28;20480;-87
2021/06/19 20:34:36;;;;;;;18.77;8.43;;;27.30;92.90;;;;;;5060218;28;20913;-86
2021/06/19 20:37:05;;;;;;;44.70;9.80;;;27.30;92.90;;;;;;5059300;28;20489;-86
2021/06/19 20:39:34;;;;;;;19.93;7.50;;;27.20;93.40;;;;;;5043231;28;20475;-87
2021/06/19 20:42:03;;;;;;;13.53;7.07;;;27.20;93.60;;;;;;5041395;28;20625;-86
2021/06/19 20:44:32;;;;;;;39.60;9.63;;;27.10;94.00;;;;;;5040071;28;20493;-88
2021/06/19 20:47:02;;;;;;;64.47;11.87;;;27.00;94.30;;;;;;5047153;28;20466;-86
2021/06/19 20:49:30;;;;;;;12.00;7.63;;;27.00;94.40;;;;;;5051943;28;20488;-86
2021/06/19 20:52:00;;;;;;;10.93;7.60;;;26.90;94.50;;;;;;5048038;28;20504;-85
2021/06/19 20:54:29;;;;;;;10.37;8.07;;;26.90;94.70;;;;;;5049060;28;20501;-85
2021/06/19 20:56:57;;;;;;;15.67;8.33;;;26.90;94.50;;;;;;5056798;28;20984;-86
2021/06/19 20:59:25;;;;;;;8.57;7.37;;;26.90;94.80;;;;;;5037868;28;20483;-85
2021/06/19 21:01:53;;;;;;;16.40;7.83;;;26.80;94.80;;;;;;5055159;28;20481;-85
2021/06/19 21:04:21;;;;;;;19.60;8.90;;;26.80;94.90;;;;;;5063813;28;20467;-85
2021/06/19 21:06:49;;;;;;;14.70;7.00;;;26.80;95.00;;;;;;5057666;28;20810;-85
2021/06/19 21:09:18;;;;;;;20.00;8.73;;;26.80;94.90;;;;;;5057088;28;20475;-85
2021/06/19 21:11:47;;;;;;;8.90;6.60;;;26.80;95.00;;;;;;5055335;28;20467;-85
2021/06/19 21:14:16;;;;;;;10.37;7.60;;;26.80;95.00;;;;;;5042000;28;20470;-90
2021/06/19 21:16:45;;;;;;;19.93;8.43;;;26.80;95.10;;;;;;5062028;28;20474;-90
2021/06/19 21:19:14;;;;;;;11.93;7.33;;;26.70;95.50;;;;;;5067825;28;20470;-90
2021/06/19 21:21:42;;;;;;;9.73;7.40;;;26.70;95.70;;;;;;5058578;28;20483;-90
2021/06/19 21:24:10;;;;;;;11.53;7.70;;;26.70;96.00;;;;;;5067406;28;20472;-88
2021/06/19 21:26:40;;;;;;;9.90;8.20;;;26.60;96.30;;;;;;5062043;28;20474;-88
2021/06/19 21:29:08;;;;;;;15.90;8.30;;;26.50;96.80;;;;;;5058142;28;21000;-89
2021/06/19 21:31:41;;;;;;;9.17;7.47;;;26.40;97.20;;;;;;5053551;28;20474;-90
2021/06/19 21:34:09;;;;;;;10.47;7.70;;;26.40;97.40;;;;;;5045862;28;20481;-90
2021/06/19 21:36:37;;;;;;;11.77;7.53;;;26.40;97.60;;;;;;5055025;28;20470;-90
2021/06/19 21:39:05;;;;;;;11.90;7.90;;;26.40;97.30;;;;;;5069062;28;20457;-90
2021/06/19 21:41:34;;;;;;;9.80;8.23;;;26.30;97.30;;;;;;5079276;28;20476;-90
2021/06/19 21:44:04;;;;;;;10.50;8.37;;;26.30;97.80;;;;;;5080426;28;20473;-90
2021/06/19 21:46:32;;;;;;;11.50;8.30;;;26.30;97.70;;;;;;5085217;28;21025;-90